Главная страница
METAR-TAF:

METAR-TAF

Аэропорты :

Стур, Норвегия

широта: 59-48N, долгота: 005-21E, высота над уровнем моря: 49 м

Текущие метеонаблюдения

Эта сводка был подготовлена 20 минут назад, в 10:50 UTC
Ветер 17 Узел от юго-восточный
Температура 8°C
Влажность 53%
Давление 1006 hPa
Видимость 10 км и более
Нет облачности ниже 1500 м, и нет кучево-дождевой облачности

METAR: ENSO 191050Z 13017KT CAVOK 08/M01 Q1006

Время: 12:10 (11:10 UTC)

Прогноз

Эта сводка был подготовлена 3 часа и 10 минут назад, в 08:00 UTC
Прогноз действительный с 19-го 09 UTC до 19-го 18 UTC
Ветер 15 Узел от юго-восточный
Видимость 10 км и более
Нет облачности ниже 1500 м, и нет кучево-дождевой облачности
временами
С 19-го 09 UTC до 19-го 15 UTC
Ветер 18 Узел от юго-восточный с порывами до 32 Узел

TAF: ENSO 190800Z 1909/1918 13015KT CAVOK TEMPO 1909/1915 13018G32KT

Метеонаблюдения и прогнозы для более 4000 аэропортов (сводки METAR и TAF).

Имеющиеся станции представлены на карте желтыми и красными точками.

Чтобы увидеть название станции, наведите на нее мышь.

Затем щелкните, чтобы увидеть метеонаблюдения и метеопрогнозы.

Управление картой: чтобы увеличить масштаб, щелкните зеленые кнопки с черным крестиком; чтобы уменьшить масштаб, щелкните зеленую кнопку с тире; для просмотра соседних карт щелкайте зеленые стрелки.


METAR-TAF: